createdAt,value
2022-10-29T00:00:45.425Z,82.50
2022-10-29T00:03:13.303Z,82.24
2022-10-29T00:05:42.561Z,82.66
2022-10-29T00:08:10.653Z,82.66
2022-10-29T00:10:38.488Z,82.79
2022-10-29T00:13:06.390Z,82.99
2022-10-29T00:15:34.281Z,83.24
2022-10-29T00:18:02.166Z,83.42
2022-10-29T00:20:30.290Z,83.63
2022-10-29T00:22:59.596Z,84.02
2022-10-29T00:25:27.471Z,84.08
2022-10-29T00:27:57.314Z,84.09
2022-10-29T00:30:25.423Z,84.38
2022-10-29T00:32:57.570Z,84.69
2022-10-29T00:35:27.837Z,84.66
2022-10-29T00:37:59.564Z,84.90
2022-10-29T00:40:29.159Z,84.87
2022-10-29T00:43:11.971Z,84.83
2022-10-29T00:45:41.865Z,84.94
2022-10-29T00:48:09.846Z,85.17
2022-10-29T00:50:40.027Z,85.17
2022-10-29T00:53:08.006Z,85.29
2022-10-29T00:55:37.625Z,85.18
2022-10-29T00:58:05.861Z,85.11
2022-10-29T01:00:35.111Z,85.34
2022-10-29T01:03:03.078Z,85.51
2022-10-29T01:05:31.596Z,85.63
2022-10-29T01:07:59.581Z,85.45
2022-10-29T01:10:32.971Z,85.47
2022-10-29T01:13:11.758Z,85.22
2022-10-29T01:15:45.379Z,85.20
2022-10-29T01:18:18.649Z,85.48
2022-10-29T01:21:00.661Z,85.50
2022-10-29T01:23:45.286Z,85.87
2022-10-29T01:26:23.024Z,86.36
2022-10-29T01:29:03.690Z,86.41
2022-10-29T01:31:35.321Z,86.92
2022-10-29T01:34:07.602Z,87.50
2022-10-29T01:36:39.613Z,87.80
2022-10-29T01:39:10.249Z,88.08
2022-10-29T01:41:42.364Z,88.47
2022-10-29T01:44:16.396Z,88.76
2022-10-29T01:46:48.011Z,88.93
2022-10-29T01:49:18.992Z,89.04
2022-10-29T01:51:47.564Z,89.28
2022-10-29T01:54:15.450Z,89.37
2022-10-29T01:56:43.330Z,89.19
2022-10-29T01:59:22.929Z,89.11
2022-10-29T02:02:07.530Z,89.04
2022-10-29T02:04:44.420Z,89.04
2022-10-29T02:07:18.307Z,89.17
2022-10-29T02:09:53.035Z,89.32
2022-10-29T02:12:24.276Z,89.70
2022-10-29T02:14:54.522Z,89.95
2022-10-29T02:17:24.370Z,90.10
2022-10-29T02:19:52.206Z,89.98
2022-10-29T02:22:20.185Z,90.02
2022-10-29T02:24:48.089Z,90.04
2022-10-29T02:27:16.162Z,90.22
2022-10-29T02:29:44.191Z,90.41
2022-10-29T02:32:12.159Z,90.70
2022-10-29T02:34:41.439Z,91.17
2022-10-29T02:37:09.329Z,91.53
2022-10-29T02:39:37.388Z,91.47
2022-10-29T02:42:05.569Z,90.82
2022-10-29T02:44:33.726Z,90.46
2022-10-29T02:47:01.749Z,90.52
2022-10-29T02:49:29.761Z,90.42
2022-10-29T02:51:59.198Z,90.41
2022-10-29T02:54:27.050Z,90.31
2022-10-29T02:56:54.993Z,90.39
2022-10-29T02:59:22.926Z,90.22
2022-10-29T03:01:51.231Z,90.60
2022-10-29T03:04:19.310Z,90.68
2022-10-29T03:06:47.279Z,91.15
2022-10-29T03:09:16.749Z,90.98
2022-10-29T03:11:44.782Z,91.00
2022-10-29T03:14:13.056Z,90.97
2022-10-29T03:16:41.065Z,90.99
2022-10-29T03:19:08.867Z,91.07
2022-10-29T03:21:36.764Z,91.16
2022-10-29T03:24:05.072Z,91.33
2022-10-29T03:26:34.462Z,91.41
2022-10-29T03:29:02.414Z,91.46
2022-10-29T03:31:30.586Z,91.35
2022-10-29T03:33:58.483Z,91.20
2022-10-29T03:36:26.481Z,91.21
2022-10-29T03:38:54.553Z,91.24
2022-10-29T03:41:22.448Z,91.36
2022-10-29T03:43:52.091Z,91.38
2022-10-29T03:46:20.398Z,91.36
2022-10-29T03:48:50.027Z,91.55
2022-10-29T03:51:18.384Z,91.73
2022-10-29T03:53:46.314Z,91.81
2022-10-29T03:56:14.245Z,91.81
2022-10-29T03:58:42.112Z,92.00
2022-10-29T04:01:12.058Z,92.10
2022-10-29T04:03:42.209Z,92.17
2022-10-29T04:06:11.238Z,92.19
2022-10-29T04:08:39.558Z,92.24
2022-10-29T04:11:08.554Z,92.26
2022-10-29T04:13:36.954Z,92.36
2022-10-29T04:16:04.935Z,92.16
2022-10-29T04:18:34.248Z,92.17
2022-10-29T04:22:40.370Z,92.27
2022-10-29T04:29:27.852Z,92.34
2022-10-29T04:31:55.758Z,92.50
2022-10-29T04:34:25.039Z,92.50
2022-10-29T04:36:53.582Z,92.56
2022-10-29T04:39:23.361Z,92.60
2022-10-29T04:41:51.556Z,92.86
2022-10-29T04:44:20.360Z,92.99
2022-10-29T04:46:50.831Z,93.18
2022-10-29T04:49:19.650Z,93.02
2022-10-29T04:51:49.531Z,92.82
2022-10-29T04:54:17.516Z,93.02
2022-10-29T04:56:46.035Z,92.84
2022-10-29T04:59:14.406Z,92.88
2022-10-29T05:01:42.614Z,93.00
2022-10-29T05:04:10.558Z,92.84
2022-10-29T05:06:38.472Z,92.80
2022-10-29T05:09:07.716Z,92.73
2022-10-29T05:11:36.477Z,92.98
2022-10-29T05:14:04.563Z,93.05
2022-10-29T05:16:33.578Z,93.00
2022-10-29T05:19:01.443Z,93.28
2022-10-29T05:21:31.572Z,93.51
2022-10-29T05:23:59.717Z,93.44
2022-10-29T05:26:31.283Z,93.10
2022-10-29T05:28:59.487Z,92.77
2022-10-29T05:31:28.042Z,92.69
2022-10-29T05:33:56.168Z,92.25
2022-10-29T05:36:24.320Z,92.09
2022-10-29T05:38:52.240Z,91.95
2022-10-29T05:41:20.249Z,91.87
2022-10-29T05:43:50.710Z,92.06
2022-10-29T05:46:18.811Z,91.96
2022-10-29T05:48:46.822Z,91.76
2022-10-29T05:51:15.937Z,91.64
2022-10-29T05:53:44.706Z,91.49
2022-10-29T05:56:12.984Z,91.76
2022-10-29T05:58:40.941Z,91.91
2022-10-29T06:01:11.361Z,92.17
2022-10-29T06:03:39.351Z,92.24
2022-10-29T06:06:07.695Z,92.08
2022-10-29T06:08:35.522Z,91.94
2022-10-29T06:11:03.770Z,91.65
2022-10-29T06:13:31.743Z,91.84
2022-10-29T06:16:00.399Z,91.51
2022-10-29T06:18:33.113Z,91.51
2022-10-29T06:21:03.195Z,91.50
2022-10-29T06:23:31.888Z,91.58
2022-10-29T06:26:00.122Z,91.70
2022-10-29T06:28:34.454Z,91.66
2022-10-29T06:31:02.803Z,91.59
2022-10-29T06:33:32.228Z,91.36
2022-10-29T06:36:00.357Z,91.39
2022-10-29T06:38:28.325Z,91.29
2022-10-29T06:40:56.531Z,91.17
2022-10-29T06:43:24.571Z,90.88
2022-10-29T06:45:52.495Z,90.65
2022-10-29T06:48:22.345Z,90.43
2022-10-29T06:50:52.462Z,90.04
2022-10-29T06:53:20.929Z,89.94
2022-10-29T06:55:49.228Z,89.91
2022-10-29T06:58:18.455Z,89.74
2022-10-29T07:00:47.133Z,89.55
2022-10-29T07:03:15.735Z,88.54
2022-10-29T07:05:43.901Z,87.29
2022-10-29T07:08:13.638Z,86.94
2022-10-29T07:10:41.627Z,86.74
2022-10-29T07:13:10.575Z,86.41
2022-10-29T07:15:38.534Z,86.35
2022-10-29T07:18:07.739Z,86.40
2022-10-29T07:20:36.797Z,86.32
2022-10-29T07:23:04.858Z,86.35
2022-10-29T07:25:37.076Z,85.98
2022-10-29T07:28:05.956Z,84.85
2022-10-29T07:30:34.598Z,84.75
2022-10-29T07:33:02.575Z,84.37
2022-10-29T07:35:30.578Z,83.36
2022-10-29T07:38:05.368Z,82.36
2022-10-29T07:40:40.638Z,82.69
2022-10-29T07:43:09.910Z,82.31
2022-10-29T07:45:37.814Z,81.24
2022-10-29T07:48:07.441Z,80.99
2022-10-29T07:50:35.556Z,80.81
2022-10-29T07:53:04.150Z,80.13
2022-10-29T07:55:32.300Z,79.65
2022-10-29T07:58:02.445Z,77.98
2022-10-29T08:00:30.934Z,76.19
2022-10-29T08:03:02.368Z,74.06
2022-10-29T08:05:33.056Z,70.99
2022-10-29T08:08:01.342Z,68.89
2022-10-29T08:10:30.334Z,68.06
2022-10-29T08:12:59.660Z,67.66
2022-10-29T08:15:30.783Z,68.10
2022-10-29T08:17:59.491Z,67.31
2022-10-29T08:20:29.826Z,65.99
2022-10-29T08:23:00.015Z,63.61
2022-10-29T08:25:28.645Z,58.39
2022-10-29T08:28:01.627Z,55.41
2022-10-29T08:30:31.959Z,55.15
2022-10-29T08:33:00.272Z,54.16
2022-10-29T08:35:32.273Z,52.92
2022-10-29T08:38:00.362Z,53.15
2022-10-29T08:40:30.163Z,53.42
2022-10-29T08:43:19.292Z,52.29
2022-10-29T08:45:49.293Z,49.36
2022-10-29T08:48:23.172Z,50.98
2022-10-29T08:50:54.348Z,53.08
2022-10-29T08:53:27.606Z,52.67
2022-10-29T08:55:58.305Z,50.19
2022-10-29T08:58:37.918Z,45.69
2022-10-29T09:01:11.737Z,45.31
2022-10-29T09:03:41.335Z,48.12
2022-10-29T09:06:15.295Z,48.88
2022-10-29T09:08:49.181Z,53.14
2022-10-29T09:11:26.290Z,56.31
2022-10-29T09:14:03.728Z,57.53
2022-10-29T09:16:43.821Z,59.02
2022-10-29T09:19:25.919Z,59.88
2022-10-29T09:21:57.748Z,57.43
2022-10-29T09:24:30.886Z,56.31
2022-10-29T09:27:00.441Z,55.80
2022-10-29T09:29:49.382Z,57.57
2022-10-29T09:32:23.201Z,58.17
2022-10-29T09:34:52.343Z,59.15
2022-10-29T09:37:23.043Z,58.47
2022-10-29T09:39:51.020Z,58.13
2022-10-29T09:42:21.254Z,58.27
2022-10-29T09:44:52.687Z,58.14
2022-10-29T09:47:27.124Z,57.08
2022-10-29T09:50:07.243Z,54.34
2022-10-29T09:52:37.906Z,52.94
2022-10-29T09:55:06.877Z,53.32
2022-10-29T09:57:36.663Z,53.04
2022-10-29T10:00:05.905Z,53.02
2022-10-29T10:02:37.682Z,52.41
2022-10-29T10:05:06.964Z,51.15
2022-10-29T10:07:34.782Z,50.76
2022-10-29T10:10:03.538Z,46.59
2022-10-29T10:12:45.702Z,46.85
2022-10-29T10:15:23.899Z,42.23
2022-10-29T10:17:58.195Z,40.63
2022-10-29T10:20:28.996Z,38.04
2022-10-29T10:22:57.284Z,35.92
2022-10-29T10:25:33.249Z,36.97
2022-10-29T10:28:04.082Z,35.91
2022-10-29T10:30:32.007Z,33.63
2022-10-29T10:33:13.235Z,33.77
2022-10-29T10:35:41.573Z,33.83
2022-10-29T10:38:10.129Z,35.84
2022-10-29T10:40:38.240Z,38.33
2022-10-29T10:43:08.310Z,34.48
2022-10-29T10:45:39.176Z,31.49
2022-10-29T10:48:09.466Z,32.58
2022-10-29T10:50:41.958Z,34.78
2022-10-29T10:53:17.469Z,36.76
2022-10-29T10:55:48.324Z,37.20
2022-10-29T10:58:21.303Z,39.30
2022-10-29T11:00:53.489Z,36.29
2022-10-29T11:03:26.114Z,33.58
2022-10-29T11:05:59.860Z,31.86
2022-10-29T11:08:29.521Z,29.46
2022-10-29T11:10:59.991Z,27.89
2022-10-29T11:13:30.078Z,25.11
2022-10-29T11:15:59.544Z,25.34
2022-10-29T11:18:31.013Z,30.41
2022-10-29T11:21:06.183Z,33.11
2022-10-29T11:23:38.808Z,36.17
2022-10-29T11:26:09.137Z,34.53
2022-10-29T11:28:40.166Z,29.92
2022-10-29T11:31:12.958Z,27.46
2022-10-29T11:33:44.949Z,26.46
2022-10-29T11:36:18.120Z,25.91
2022-10-29T11:38:48.529Z,25.61
2022-10-29T11:41:23.075Z,26.82
2022-10-29T11:43:51.210Z,25.68
2022-10-29T11:46:24.696Z,24.92
2022-10-29T11:48:57.728Z,24.41
2022-10-29T11:51:32.230Z,25.11
2022-10-29T11:54:02.195Z,25.91
2022-10-29T11:56:42.513Z,25.23
2022-10-29T11:59:14.639Z,24.53
2022-10-29T12:01:47.223Z,25.00
2022-10-29T12:04:24.245Z,23.81
2022-10-29T12:07:01.000Z,22.16
2022-10-29T12:09:40.727Z,21.87
2022-10-29T12:12:12.784Z,22.28
2022-10-29T12:14:45.632Z,21.57
2022-10-29T12:17:14.942Z,20.35
2022-10-29T12:19:47.436Z,20.57
2022-10-29T12:22:32.746Z,22.49
2022-10-29T12:25:08.089Z,23.03
2022-10-29T12:27:42.093Z,24.72
2022-10-29T12:30:11.238Z,29.41
2022-10-29T12:32:52.742Z,33.27
2022-10-29T12:35:28.797Z,36.45
2022-10-29T12:38:06.688Z,38.20
2022-10-29T12:40:35.875Z,40.27
2022-10-29T12:43:05.327Z,40.57
2022-10-29T12:45:43.453Z,39.87
2022-10-29T12:48:27.171Z,35.19
2022-10-29T12:50:59.161Z,32.43
2022-10-29T12:53:31.759Z,32.17
2022-10-29T12:55:59.981Z,32.23
2022-10-29T12:58:48.646Z,32.52
2022-10-29T13:02:05.478Z,33.61
2022-10-29T13:04:27.818Z,35.33
2022-10-29T13:07:01.106Z,36.63
2022-10-29T13:09:31.344Z,37.65
2022-10-29T13:11:59.771Z,38.32
2022-10-29T13:14:30.417Z,38.53
2022-10-29T13:16:59.344Z,38.19
2022-10-29T13:19:35.753Z,38.55
2022-10-29T13:22:05.322Z,38.43
2022-10-29T13:24:34.749Z,39.94
2022-10-29T13:27:05.798Z,39.96
2022-10-29T13:29:47.609Z,40.29
2022-10-29T13:32:34.731Z,40.60
2022-10-29T13:35:03.795Z,40.29
2022-10-29T13:37:49.713Z,40.30
2022-10-29T13:40:36.421Z,39.60
2022-10-29T13:43:10.624Z,39.51
2022-10-29T13:45:40.787Z,37.87
2022-10-29T13:48:14.286Z,36.70
2022-10-29T13:50:43.261Z,37.53
2022-10-29T13:53:14.256Z,36.75
2022-10-29T13:55:44.979Z,36.63
2022-10-29T13:58:17.356Z,38.54
2022-10-29T14:00:47.241Z,37.91
2022-10-29T14:03:19.013Z,36.38
2022-10-29T14:05:50.280Z,35.98
2022-10-29T14:08:21.413Z,35.25
2022-10-29T14:10:51.468Z,34.93
2022-10-29T14:13:26.944Z,34.74
2022-10-29T14:16:02.342Z,35.55
2022-10-29T14:18:32.224Z,36.28
2022-10-29T14:21:00.939Z,37.24
2022-10-29T14:23:29.639Z,36.59
2022-10-29T14:26:00.089Z,36.73
2022-10-29T14:28:30.256Z,36.89
2022-10-29T14:31:02.481Z,36.62
2022-10-29T14:33:31.675Z,36.58
2022-10-29T14:36:02.496Z,37.84
2022-10-29T14:38:34.432Z,38.64
2022-10-29T14:41:02.700Z,39.51
2022-10-29T14:43:32.066Z,40.44
2022-10-29T14:46:10.698Z,41.34
2022-10-29T14:48:39.526Z,42.37
2022-10-29T14:51:07.466Z,44.34
2022-10-29T14:53:41.509Z,45.21
2022-10-29T14:56:11.771Z,46.92
2022-10-29T14:58:42.269Z,48.53
2022-10-29T15:01:14.018Z,49.77
2022-10-29T15:03:42.519Z,51.02
2022-10-29T15:06:15.941Z,51.95
2022-10-29T15:08:44.822Z,52.30
2022-10-29T15:11:31.487Z,52.30
2022-10-29T15:14:01.159Z,53.41
2022-10-29T15:16:29.988Z,53.70
2022-10-29T15:18:59.154Z,54.28
2022-10-29T15:21:29.806Z,54.63
2022-10-29T15:24:00.668Z,55.00
2022-10-29T15:26:28.533Z,56.29
2022-10-29T15:28:57.623Z,56.09
2022-10-29T15:31:30.596Z,57.04
2022-10-29T15:34:01.175Z,57.72
2022-10-29T15:36:44.957Z,58.63
2022-10-29T15:39:21.027Z,59.06
2022-10-29T15:41:49.733Z,59.65
2022-10-29T15:44:31.855Z,59.95
2022-10-29T15:47:02.041Z,60.32
2022-10-29T15:49:32.867Z,60.80
2022-10-29T15:52:01.274Z,60.91
2022-10-29T15:54:37.454Z,61.38
2022-10-29T15:57:10.431Z,61.49
2022-10-29T15:59:40.786Z,62.17
2022-10-29T16:02:14.815Z,62.30
2022-10-29T16:04:43.149Z,63.30
2022-10-29T16:07:12.895Z,63.65
2022-10-29T16:09:44.724Z,63.99
2022-10-29T16:12:13.175Z,64.21
2022-10-29T16:14:41.504Z,64.68
2022-10-29T16:17:13.227Z,65.38
2022-10-29T16:19:42.705Z,65.44
2022-10-29T16:22:12.789Z,66.40
2022-10-29T16:24:40.679Z,66.92
2022-10-29T16:27:13.843Z,67.39
2022-10-29T16:29:41.924Z,67.49
2022-10-29T16:32:10.683Z,68.14
2022-10-29T16:34:38.625Z,68.40
2022-10-29T16:37:10.769Z,67.78
2022-10-29T16:39:38.925Z,67.90
2022-10-29T16:42:07.394Z,67.84
2022-10-29T16:44:35.443Z,67.85
2022-10-29T16:47:03.357Z,67.75
2022-10-29T16:49:31.460Z,67.58
2022-10-29T16:51:59.532Z,67.62
2022-10-29T16:54:28.749Z,67.62
2022-10-29T16:56:57.864Z,66.98
2022-10-29T16:59:25.733Z,67.45
2022-10-29T17:01:53.779Z,67.64
2022-10-29T17:04:21.777Z,67.71
2022-10-29T17:06:49.884Z,67.72
2022-10-29T17:09:20.696Z,67.59
2022-10-29T17:11:54.332Z,67.74
2022-10-29T17:14:22.379Z,68.14
2022-10-29T17:16:50.455Z,68.70
2022-10-29T17:19:18.647Z,68.82
2022-10-29T17:21:46.712Z,69.18
2022-10-29T17:24:14.815Z,69.72
2022-10-29T17:26:42.725Z,69.02
2022-10-29T17:29:25.835Z,69.31
2022-10-29T17:31:57.496Z,68.65
2022-10-29T17:34:26.088Z,69.39
2022-10-29T17:36:54.004Z,69.22
2022-10-29T17:39:22.218Z,69.31
2022-10-29T17:41:50.271Z,69.19
2022-10-29T17:44:21.062Z,69.52
2022-10-29T17:46:49.212Z,69.81
2022-10-29T17:49:21.671Z,70.31
2022-10-29T17:51:50.386Z,70.41
2022-10-29T17:54:18.204Z,70.88
2022-10-29T17:56:46.152Z,71.00
2022-10-29T17:59:13.996Z,70.14
2022-10-29T18:01:57.952Z,69.94
2022-10-29T18:04:26.643Z,68.15
2022-10-29T18:06:56.354Z,67.55
2022-10-29T18:09:24.564Z,68.00
2022-10-29T18:11:52.486Z,68.95
2022-10-29T18:14:20.334Z,69.36
2022-10-29T18:16:50.243Z,69.32
2022-10-29T18:19:18.305Z,70.62
2022-10-29T18:21:46.191Z,69.82
2022-10-29T18:24:14.013Z,69.41
2022-10-29T18:26:42.141Z,70.08
2022-10-29T18:29:12.354Z,68.71
2022-10-29T18:31:45.070Z,69.09
2022-10-29T18:34:15.425Z,69.64
2022-10-29T18:36:44.462Z,69.30
2022-10-29T18:39:12.867Z,70.15
2022-10-29T18:41:41.686Z,69.64
2022-10-29T18:44:09.795Z,69.04
2022-10-29T18:46:40.317Z,68.27
2022-10-29T18:49:10.562Z,67.19
2022-10-29T18:51:39.807Z,66.80
2022-10-29T18:54:07.798Z,66.57
2022-10-29T18:56:35.845Z,66.82
2022-10-29T18:59:03.689Z,66.64
2022-10-29T19:01:32.608Z,67.10
2022-10-29T19:04:01.438Z,66.33
2022-10-29T19:06:30.061Z,66.11
2022-10-29T19:09:03.831Z,66.49
2022-10-29T19:11:32.328Z,66.99
2022-10-29T19:14:01.970Z,67.65
2022-10-29T19:16:30.634Z,68.76
2022-10-29T19:19:00.131Z,68.30
2022-10-29T19:21:28.277Z,68.08
2022-10-29T19:23:56.851Z,68.66
2022-10-29T19:26:27.243Z,68.81
2022-10-29T19:28:55.944Z,68.90
2022-10-29T19:31:26.216Z,70.26
2022-10-29T19:33:56.727Z,70.04
2022-10-29T19:36:30.158Z,70.28
2022-10-29T19:38:59.038Z,70.45
2022-10-29T19:41:29.282Z,70.39
2022-10-29T19:43:59.283Z,71.43
2022-10-29T19:46:27.101Z,71.87
2022-10-29T19:48:56.011Z,72.07
2022-10-29T19:51:24.328Z,71.42
2022-10-29T19:53:52.394Z,72.09
2022-10-29T19:56:21.372Z,72.81
2022-10-29T19:58:50.643Z,72.53
2022-10-29T20:01:20.558Z,73.16
2022-10-29T20:03:49.155Z,73.23
2022-10-29T20:06:17.668Z,72.73
2022-10-29T20:08:45.589Z,72.87
2022-10-29T20:11:14.471Z,72.89
2022-10-29T20:13:42.601Z,72.95
2022-10-29T20:16:14.351Z,73.33
2022-10-29T20:18:42.428Z,73.50
2022-10-29T20:21:10.528Z,73.43
2022-10-29T20:23:38.594Z,72.85
2022-10-29T20:26:07.336Z,72.49
2022-10-29T20:28:35.615Z,72.64
2022-10-29T20:31:30.016Z,72.88
2022-10-29T20:33:59.403Z,72.88
2022-10-29T20:36:29.460Z,72.82
2022-10-29T20:38:57.976Z,72.53
2022-10-29T20:41:25.915Z,72.20
2022-10-29T20:43:54.432Z,72.05
2022-10-29T20:46:22.648Z,72.44
2022-10-29T20:48:51.808Z,72.69
2022-10-29T20:51:19.860Z,72.68
2022-10-29T20:53:47.792Z,72.86
2022-10-29T20:56:16.540Z,72.95
2022-10-29T20:58:45.104Z,72.94
2022-10-29T21:01:14.820Z,72.64
2022-10-29T21:03:47.699Z,73.05
2022-10-29T21:06:18.447Z,73.12
2022-10-29T21:08:47.012Z,73.68
2022-10-29T21:11:16.050Z,73.69
2022-10-29T21:13:44.339Z,73.71
2022-10-29T21:16:16.234Z,73.53
2022-10-29T21:18:45.691Z,73.46
2022-10-29T21:21:14.092Z,73.49
2022-10-29T21:23:43.939Z,73.75
2022-10-29T21:26:13.023Z,73.76
2022-10-29T21:28:40.912Z,73.90
2022-10-29T21:31:11.076Z,73.97
2022-10-29T21:33:39.191Z,73.71
2022-10-29T21:36:08.615Z,73.87
2022-10-29T21:38:36.993Z,74.14
2022-10-29T21:41:09.045Z,73.84
2022-10-29T21:43:37.235Z,73.58
2022-10-29T21:46:05.095Z,73.37
2022-10-29T21:48:32.902Z,73.25
2022-10-29T21:51:05.142Z,73.38
2022-10-29T21:53:33.230Z,73.65
2022-10-29T21:56:01.912Z,73.45
2022-10-29T21:58:31.536Z,73.05
2022-10-29T22:01:02.933Z,73.12
2022-10-29T22:03:31.703Z,72.67
2022-10-29T22:06:06.724Z,72.60
2022-10-29T22:08:35.082Z,72.93
2022-10-29T22:11:03.812Z,72.96
2022-10-29T22:13:37.873Z,71.29
2022-10-29T22:16:07.003Z,70.77
2022-10-29T22:18:35.305Z,71.19
2022-10-29T22:21:07.487Z,72.02
2022-10-29T22:23:36.341Z,71.79
2022-10-29T22:26:04.695Z,71.75
2022-10-29T22:28:33.917Z,72.18
2022-10-29T22:31:02.637Z,72.00
2022-10-29T22:33:30.899Z,72.56
2022-10-29T22:36:04.560Z,72.31
2022-10-29T22:38:32.595Z,72.86
2022-10-29T22:41:04.187Z,73.15
2022-10-29T22:43:32.807Z,73.13
2022-10-29T22:46:02.100Z,73.34
2022-10-29T22:48:29.964Z,73.24
2022-10-29T22:51:05.289Z,73.20
2022-10-29T22:53:34.873Z,72.91
2022-10-29T22:56:08.608Z,72.99
2022-10-29T22:58:41.821Z,73.48
2022-10-29T23:01:16.539Z,73.20
2022-10-29T23:03:44.900Z,73.04
2022-10-29T23:06:14.128Z,72.75
2022-10-29T23:08:44.223Z,73.10
2022-10-29T23:11:16.610Z,73.23
2022-10-29T23:13:50.725Z,73.33
2022-10-29T23:16:22.133Z,73.37
2022-10-29T23:18:50.204Z,73.16
2022-10-29T23:21:18.282Z,73.20
2022-10-29T23:23:46.116Z,73.30
2022-10-29T23:26:15.262Z,73.36
2022-10-29T23:28:43.572Z,73.27
2022-10-29T23:31:12.145Z,73.08
2022-10-29T23:33:44.450Z,73.00
2022-10-29T23:36:12.994Z,73.24
2022-10-29T23:38:40.795Z,73.30
2022-10-29T23:41:09.028Z,73.15
2022-10-29T23:43:36.864Z,73.32
2022-10-29T23:46:04.878Z,73.82
2022-10-29T23:48:32.901Z,74.11
2022-10-29T23:51:02.431Z,73.86
2022-10-29T23:53:30.325Z,74.09
2022-10-29T23:55:58.167Z,74.15
2022-10-29T23:58:26.311Z,74.15
